• Join FlightAware (Why Join?)
  • Login
  • US Flag 
11:15PM EDT


 

Airport Tracker/Info


-or-


 

Live Flight TrackerFlight Track Log ✈ N414JK ✈ 06-Sep-2013 ✈ KLNN - KTTN

Flight Track Log - Related Links

Times and Time Zones

All times are in EDT time to prevent confusion due to time zone crossing. See the N414JK flight status page for this flight to view local times or setup timezone preferences in your user account.

Time Position Orientation Groundspeed Altitude Reporting Facility
EDT Latitude Longitude Course Direction KTS MPH feet Rate Location/Type
04:47PM 40.3167 -74.8333 303° West 137 158 1,300  Level Philadelphia TRACON
04:48PM 40.3333 -74.8667 303° West 137 158 1,900 720 Climbing Philadelphia TRACON
04:49PM 40.3167 -74.9167 246° West 121 139 2,800 720 Climbing Philadelphia TRACON
04:50PM 40.3164 -74.9575 270° West 124 143 3,200 600 Climbing New York Center
04:51PM 40.3108 -74.9953 259° West 137 158 3,900 720 Climbing New York Center
04:52PM 40.3031 -75.0383 257° West 131 151 4,700 840 Climbing New York Center
04:53PM 40.3056 -75.0875 274° West 126 145 5,600 660 Climbing New York Center
04:54PM 40.3294 -75.1189 315° West 129 148 6,100 480 Climbing New York Center
04:55PM 40.3486 -75.1636 299° West 144 166 6,600 480 Climbing New York Center
04:56PM 40.3489 -75.2128 270° West 144 166 7,100 600 Climbing New York Center
04:57PM 40.3531 -75.2647 276° West 149 171 7,800 720 Climbing New York Center
04:58PM 40.3572 -75.3194 276° West 149 171 8,600 720 Climbing New York Center
04:59PM 40.3575 -75.3686 270° West 139 160 9,300 600 Climbing New York Center
05:00PM 40.3744 -75.4133 296° West 139 160 9,800 420 Climbing New York Center
05:01PM 40.3808 -75.4628 280° West 145 167 10,200 540 Climbing New York Center
05:02PM 40.3892 -75.5150 282° West 145 167 10,900 600 Climbing New York Center
05:03PM 40.3953 -75.5672 279° West 145 167 11,400 420 Climbing New York Center
05:04PM 40.4058 -75.6200 285° West 145 167 11,800 300 Climbing New York Center
05:05PM 40.4142 -75.6694 282° West 150 173 12,000 120 Climbing New York Center
05:06PM 40.4239 -75.7331 281° West 165 190 12,100 180 Climbing New York Center
05:07PM 40.4400 -75.7942 289° West 170 196 12,400 300 Climbing New York Center
05:08PM 40.4564 -75.8525 290° West 170 196 12,700 300 Climbing New York Center
05:09PM 40.4686 -75.9081 286° West 170 196 13,100 420 Climbing New York Center
05:10PM 40.4828 -75.9608 289° West 164 189 13,600 480 Climbing New York Center
05:11PM 40.4953 -76.0136 287° West 159 183 14,100 360 Climbing New York Center
05:12PM 40.5094 -76.0694 288° West 159 183 14,400 300 Climbing New York Center
05:13PM 40.5197 -76.1167 286° West 154 177 14,800 360 Climbing New York Center
05:14PM 40.5356 -76.1781 289° West 154 177 15,200 420 Climbing New York Center
05:15PM 40.5497 -76.2336 289° West 154 177 15,700 360 Climbing New York Center
05:16PM 40.5639 -76.2922 288° West 159 183 16,000 120 Climbing New York Center
05:17PM 40.5761 -76.3425 288° West 165 190 16,000  Level New York Center
05:18PM 40.5919 -76.4039 289° West 177 204 16,000  Level New York Center
05:19PM 40.6092 -76.4764 287° West 183 211 16,000  Level New York Center
05:20PM 40.6228 -76.5375 286° West 189 217 16,000  Level New York Center
05:21PM 40.6386 -76.6019 288° West 189 217 16,000  Level New York Center
05:22PM 40.6564 -76.6636 291° West 189 217 16,000  Level New York Center
05:23PM 40.6678 -76.7275 283° West 189 217 16,000  Level New York Center
05:24PM 40.6853 -76.7892 291° West 189 217 16,000  Level New York Center
05:25PM 40.6989 -76.8506 286° West 183 211 16,000  Level New York Center
05:26PM 40.7144 -76.9150 288° West 183 211 16,000  Level New York Center
05:27PM 40.7278 -76.9764 286° West 190 219 16,000  Level New York Center
05:28PM 40.7417 -77.0325 288° West 190 219 16,000  Level New York Center
05:29PM 40.7569 -77.0969 287° West 190 219 16,000  Level New York Center
05:30PM 40.7722 -77.1614 287° West 190 219 16,000  Level New York Center
05:31PM 40.7878 -77.2206 289° West 190 219 16,000  Level New York Center
05:32PM 40.8008 -77.2847 285° West 190 219 16,000  Level New York Center
05:33PM 40.8178 -77.3550 288° West 190 219 16,000  Level New York Center
05:34PM 40.8333 -77.4142 289° West 190 219 16,000  Level New York Center
05:36PM 40.8606 -77.5411 286° West 183 211 16,000  Level Cleveland Center
05:37PM 40.8767 -77.6008 290° West 183 211 16,000  Level Cleveland Center
05:38PM 40.8908 -77.6633 287° West 183 211 16,000  Level Cleveland Center
05:39PM 40.9050 -77.7258 287° West 183 211 16,000  Level Cleveland Center
05:40PM 40.9189 -77.7883 286° West 183 211 16,000  Level Cleveland Center
05:41PM 40.9331 -77.8539 286° West 183 211 16,000  Level Cleveland Center
05:42PM 40.9492 -77.9164 289° West 183 211 16,000  Level Cleveland Center
05:43PM 40.9631 -77.9792 286° West 183 211 16,000  Level Cleveland Center
05:44PM 40.9769 -78.0417 286° West 183 211 16,000  Level Cleveland Center
05:45PM 40.9908 -78.1044 286° West 183 211 16,000  Level Cleveland Center
05:46PM 41.0047 -78.1672 286° West 183 211 16,000  Level Cleveland Center
05:47PM 41.0206 -78.2300 289° West 183 211 16,000  Level Cleveland Center
05:48PM 41.0342 -78.2844 288° West 183 211 16,000  Level Cleveland Center
05:49PM 41.0500 -78.3472 289° West 183 211 16,000  Level Cleveland Center
05:50PM 41.0617 -78.4103 284° West 183 211 16,000  Level Cleveland Center
05:51PM 41.0775 -78.4758 288° West 183 211 16,000  Level Cleveland Center
05:52PM 41.0911 -78.5389 286° West 183 211 16,000  Level Cleveland Center
05:53PM 41.1047 -78.6017 286° West 183 211 16,000  Level Cleveland Center
05:54PM 41.1183 -78.6647 286° West 183 211 16,000  Level Cleveland Center
05:55PM 41.1319 -78.7278 286° West 183 211 16,000  Level Cleveland Center
05:56PM 41.1475 -78.7936 287° West 183 211 16,000  Level Cleveland Center
05:57PM 41.1611 -78.8567 286° West 183 211 16,000  Level Cleveland Center
05:58PM 41.1744 -78.9197 286° West 183 211 16,000  Level Cleveland Center
05:59PM 41.1900 -78.9883 287° West 183 211 16,000  Level Cleveland Center
06:00PM 41.2036 -79.0514 286° West 183 211 16,000  Level Cleveland Center
06:01PM 41.2167 -79.1119 286° West 183 211 16,000 -120 Level Cleveland Center
06:02PM 41.2281 -79.1750 284° West 183 211 15,800 -360 Descending Cleveland Center
06:03PM 41.2433 -79.2439 286° West 183 211 15,300 -360 Descending Cleveland Center
06:04PM 41.2586 -79.3042 289° West 188 216 15,100 -420 Descending Cleveland Center
06:05PM 41.2742 -79.3731 287° West 188 216 14,500 -600 Descending Cleveland Center
06:06PM 41.2892 -79.4392 287° West 188 216 14,000 -480 Descending Cleveland Center
06:07PM 41.2970 -79.4975 284° West  Level FlightAware Approximate
06:07PM 41.3025 -79.5108 284° West 188 216 13,600  Level Cleveland Center
06:08PM 41.3156 -79.5797 284° West 188 216 13,000 -540 Descending Cleveland Center
06:09PM 41.3331 -79.6567 287° West 188 216 12,600 -480 Descending Cleveland Center
06:10PM 41.3461 -79.7231 285° West 188 216 12,100 -480 Descending Cleveland Center
06:11PM 41.3589 -79.7864 285° West 193 222 11,700 -360 Descending Cleveland Center
06:12PM 41.3739 -79.8525 287° West 193 222 11,400 -360 Descending Cleveland Center
06:13PM 41.3889 -79.9217 286° West 193 222 11,000 -420 Descending Cleveland Center
06:14PM 41.3797 -79.9487 285° West  Level FlightAware Approximate
06:14PM 41.4039 -79.9881 287° West 198 228 10,600  Level Cleveland Center
06:15PM 41.4000 -80.0077 270° West  Level FlightAware Approximate
06:15PM 41.4169 -80.0597 284° West 198 228 10,300  Level Cleveland Center
06:16PM 41.4047 -80.0733 285° West  Level FlightAware Approximate
06:16PM 41.4317 -80.1261 286° West 198 228 9,900  Level Cleveland Center
06:17PM 41.4175 -80.1374 285° West  Level FlightAware Approximate
06:18PM 41.4446 -80.2541 292° West  Level FlightAware Approximate
06:18PM 41.4303 -80.2016 285° West  Level FlightAware Approximate
06:19PM 41.4475 -80.2638 292° West  Level FlightAware Approximate
06:20PM 41.4660 -80.3254 292° West  Level FlightAware Approximate
06:21PM 41.4833 -80.3874 270° West  Level FlightAware Approximate
06:22PM 41.4961 -80.4511 288° West  Level FlightAware Approximate
06:23PM 41.5055 -80.5162 278° West  Level FlightAware Approximate
06:24PM 41.5128 -80.5819 278° West  Level FlightAware Approximate
06:24PM 41.5075 -80.7081 304° West 194 223 6,500  Level Cleveland Center
06:24PM 41.5097 -80.7328 277° West 192 221 6,300 -540 Descending Cleveland Center
06:25PM 41.5234 -80.6468 287° West  Level FlightAware Approximate
06:25PM 41.5353 -80.7004 287° West  Level FlightAware Approximate
06:25PM 41.5094 -80.8022 270° West 188 216 5,800  Level Cleveland Center
06:26PM 41.5495 -80.7642 287° West  Level FlightAware Approximate
06:26PM 41.5375 -80.7105 287° West  Level FlightAware Approximate
06:26PM 41.5114 -80.8769 272° West 181 208 5,200  Level Cleveland Center
06:27PM 41.5514 -80.7744 284° West  Level FlightAware Approximate
06:27PM 41.5613 -80.8288 284° West  Level FlightAware Approximate
06:27PM 41.5133 -80.9436 272° West 181 208 4,800  Level Cleveland Center
06:28PM 41.5731 -80.8935 284° West  Level FlightAware Approximate
06:28PM 41.5632 -80.8390 284° West  Level FlightAware Approximate
06:28PM 41.5172 -81.0158 274° West 181 208 4,300  Level Cleveland Center
06:29PM 41.5749 -80.9036 284° West  Level FlightAware Approximate
06:29PM 41.5868 -80.9570 304° West  Level FlightAware Approximate
06:29PM 41.5150 -81.0683 267° West 178 205 3,900  Level Cleveland Center
06:30PM 41.5912 -80.9657 304° West  Level FlightAware Approximate
06:30PM 41.5167 -81.1378 272° West 167 192 3,600  Level Cleveland Center
06:31PM 41.6000 -81.0287 270° West  Level FlightAware Approximate
06:31PM 41.5353 -81.1933 294° West 162 186 3,400  Level Cleveland Center
06:32PM 41.6229 -81.0830 284° West  Level FlightAware Approximate
06:32PM 41.5661 -81.2353 315° West 158 182 3,200  Level Cleveland Center
06:33PM 41.6351 -81.1476 284° West  Level FlightAware Approximate
06:34PM 41.6472 -81.2122 284° West  Level FlightAware Approximate
06:34PM 41.6215 -81.2801 329° Northwest  Level FlightAware Approximate
06:35PM 41.6592 -81.2769 284° West  Level FlightAware Approximate
06:36PM 41.6727 -81.3410 289° West  Level FlightAware Approximate
06:37PM 41.6833 -81.3833 289° West  Level FlightAware Approximate
06:38PM 41.6716 -81.3186 289° West  Level Estimated
06:39PM 41.6833 -81.3833 289° West  Level FlightAware Approximate
06:40PM 41.6716 -81.3186 289° West  Level Estimated
06:41PM 41.6833 -81.3833 289° West  Level FlightAware Approximate
06:41PM 41.6833 -81.3833 289° West  Level FlightAware Approximate
06:42PM 41.6716 -81.3186 289° West  Level Estimated
06:42PM 41.6716 -81.3186 289° West  Level Estimated
06:43PM 41.6833 -81.3833 289° West  Level FlightAware Approximate
06:43PM 41.6833 -81.3833 289° West  Level FlightAware Approximate
06:44PM 41.6716 -81.3186 289° West  Level Estimated
06:44PM 41.6716 -81.3186 289° West  Level Estimated
06:45PM 41.6833 -81.3833 289° West  Level FlightAware Approximate
06:45PM 41.6833 -81.3833 289° West  Level FlightAware Approximate
06:46PM 41.6716 -81.3186 289° West  Level Estimated
06:46PM 41.6716 -81.3186 289° West  Level Estimated
06:47PM 41.6833 -81.3833 289° West  Level FlightAware Approximate
06:47PM 41.6833 -81.3833 289° West  Level FlightAware Approximate
06:48PM 41.6716 -81.3186 289° West  Level Estimated
06:48PM 41.6716 -81.3186 289° West  Level Estimated